Time;durP1;ratioP1;P1;durP2;ratioP2;P2;SDS_P1;SDS_P2;PMS_P1;PMS_P2;Temp;Humidity;BMP_temperature;BMP_pressure;BME280_temperature;BME280_humidity;BME280_pressure;Samples;Min_cycle;Max_cycle;Signal;HPM_P1;HPM_P2
2021/01/06 00:00:40;;;;;;;0.60;0.50;;;3.20;99.90;;;3.79;100.00;95702.88;5027487;28;20191;-68
2021/01/06 00:03:07;;;;;;;0.60;0.60;;;3.20;99.90;;;3.75;100.00;95367.91;5013445;28;20214;-69
2021/01/06 00:05:36;;;;;;;0.60;0.60;;;3.20;99.90;;;3.78;100.00;95372.91;5014263;28;20186;-69
2021/01/06 00:08:03;;;;;;;0.60;0.50;;;3.20;99.90;;;3.82;100.00;95379.56;5028955;28;20599;-70
2021/01/06 00:10:32;;;;;;;0.60;0.60;;;3.20;99.90;;;3.71;100.00;94704.88;4994264;28;20189;-70
2021/01/06 00:12:59;;;;;;;0.60;0.60;;;3.20;99.90;;;3.72;100.00;94378.41;5028247;28;20198;-69
2021/01/06 00:15:30;;;;;;;0.60;0.60;;;3.20;99.90;;;3.69;100.00;93061.22;5011820;28;20299;-70
2021/01/06 00:17:58;;;;;;;0.60;0.60;;;3.10;99.90;;;3.66;100.00;92071.75;5029624;28;20175;-70
2021/01/06 00:20:29;;;;;;;0.60;0.57;;;3.10;99.90;;;3.70;100.00;90439.84;5026561;28;20198;-70
2021/01/06 00:22:57;;;;;;;0.60;0.50;;;3.10;99.90;;;3.68;100.00;88798.38;5014556;28;20194;-70
2021/01/06 00:25:27;;;;;;;0.60;0.50;;;3.10;99.90;;;3.65;100.00;86828.91;5013106;28;20187;-70
2021/01/06 00:27:54;;;;;;;0.70;0.70;;;3.10;99.90;;;3.76;100.00;85536.09;5014216;28;20177;-71
2021/01/06 00:30:26;;;;;;;0.60;0.60;;;3.10;99.90;;;3.62;100.00;83225.22;4996853;28;20218;-70
2021/01/06 00:32:53;;;;;;;0.60;0.50;;;3.10;99.90;;;3.60;100.00;80934.69;4994928;28;20177;-71
2021/01/06 00:35:22;;;;;;;0.60;0.50;;;3.10;99.90;;;3.75;100.00;78994.56;5009682;28;20241;-70
2021/01/06 00:37:49;;;;;;;0.60;0.50;;;3.10;99.90;;;3.66;100.00;76043.59;4994153;28;20196;-71
2021/01/06 00:40:19;;;;;;;0.60;0.60;;;3.10;99.90;;;3.62;100.00;73755.28;5008637;28;20482;-70
2021/01/06 00:42:46;;;;;;;0.60;0.50;;;3.10;99.90;;;3.62;100.00;70820.81;5014034;28;20183;-71
2021/01/06 00:45:16;;;;;;;0.60;0.50;;;3.00;99.90;;;3.67;100.00;68221.06;5013177;28;20231;-70
2021/01/06 00:47:44;;;;;;;0.60;0.50;;;3.00;99.90;;;3.69;100.00;65944.81;5033799;28;20921;-71
2021/01/06 00:50:13;;;;;;;0.60;0.60;;;3.00;99.90;;;3.65;100.00;63662.63;5032826;28;20182;-70
2021/01/06 00:52:41;;;;;;;0.60;0.50;;;3.00;99.90;;;3.62;100.00;61384.44;5013080;28;20207;-71
2021/01/06 00:55:12;;;;;;;0.60;0.50;;;3.00;99.90;;;3.64;100.00;60087.03;5040463;28;20233;-70
2021/01/06 00:57:42;;;;;;;0.60;0.60;;;3.00;99.90;;;3.70;100.00;57820.19;5009192;28;20458;-71
2021/01/06 01:00:16;;;;;;;0.60;0.60;;;3.00;99.90;;;3.68;100.00;55222.03;5021850;28;20466;-70
2021/01/06 01:02:49;;;;;;;0.60;0.50;;;3.00;99.90;;;3.69;100.00;53277.25;5021958;28;20515;-70
2021/01/06 01:05:18;;;;;;;0.60;0.60;;;3.00;99.90;;;3.73;100.00;51984.41;5012345;28;20442;-71
2021/01/06 01:07:45;;;;;;;0.60;0.50;;;3.00;99.90;;;3.61;100.00;49706.19;5011922;28;20187;-70
2021/01/06 01:10:24;;;;;;;0.60;0.60;;;3.00;99.90;;;3.65;100.00;47119.56;5012928;28;20942;-71
2021/01/06 01:12:52;;;;;;;0.60;0.50;;;3.00;99.90;;;3.61;100.00;44851.94;5013262;28;20202;-71
2021/01/06 01:15:22;;;;;;;0.60;0.50;;;3.00;99.90;;;3.58;100.00;41940.72;5025321;28;20215;-71
2021/01/06 01:17:49;;;;;;;0.60;0.50;;;3.00;99.90;;;3.55;100.00;39355.09;5000930;28;20198;-71
2021/01/06 01:20:18;;;;;;;0.63;0.60;;;3.00;99.90;;;3.57;100.00;36452.53;5013555;28;20186;-71
2021/01/06 01:22:46;;;;;;;0.60;0.50;;;3.00;99.90;;;3.57;100.00;33228.84;5013073;28;20182;-70
2021/01/06 01:25:15;;;;;;;0.60;0.50;;;3.00;99.90;;;3.51;100.00;29974.97;5013708;28;20198;-70
2021/01/06 01:27:42;;;;;;;0.60;0.50;;;3.00;99.90;;;3.63;100.00;27055.13;5012167;28;20450;-71
2021/01/06 01:30:14;;;;;;;0.60;0.57;;;3.00;99.90;;;3.56;100.00;23779.44;5013364;28;20843;-69
2021/01/06 01:32:42;;;;;;;0.60;0.55;;;3.00;99.90;;;3.68;100.00;21312.66;4998020;28;20200;-72
2021/01/06 01:35:12;;;;;;;0.60;0.50;;;3.00;99.90;;;3.61;100.00;18000.19;4993898;28;20192;-70
2021/01/06 01:37:42;;;;;;;0.60;0.60;;;3.00;99.90;;;3.64;100.00;15741.53;5014494;28;20433;-71
2021/01/06 01:40:12;;;;;;;0.60;0.60;;;3.10;99.90;;;3.69;100.00;13444.59;5007887;28;20198;-70
2021/01/06 01:42:39;;;;;;;0.60;0.60;;;3.10;99.90;;;3.68;100.00;11157.66;5012354;28;20545;-71
2021/01/06 01:45:07;;;;;;;0.60;0.60;;;3.10;99.90;;;3.77;100.00;9271.84;5013218;28;20234;-70
2021/01/06 01:47:49;;;;;;;0.60;0.53;;;3.10;99.90;;;3.68;100.00;7063.41;4993543;28;20191;-70
2021/01/06 01:50:17;;;;;;;0.60;0.50;;;3.10;99.90;;;3.70;100.00;5183.19;5024464;28;20439;-71
2021/01/06 01:52:50;;;;;;;0.60;0.50;;;3.00;99.90;;;3.70;100.00;3398.63;5003274;28;20821;-71
2021/01/06 01:55:20;;;;;;;0.60;0.50;;;3.10;99.90;;;3.68;100.00;1836.78;5012650;28;20212;-71
2021/01/06 01:57:53;;;;;;;0.60;0.50;;;3.10;99.90;;;3.63;100.00;-68.44;5013064;28;20263;-71
2021/01/06 02:00:25;;;;;;;0.60;0.60;;;3.00;99.90;;;3.65;100.00;-1618.25;5012620;28;20218;-70
2021/01/06 02:03:06;;;;;;;0.60;0.60;;;3.10;99.90;;;3.65;100.00;-3289.47;5013349;28;20199;-71
2021/01/06 02:05:45;;;;;;;0.60;0.50;;;3.10;99.90;;;3.68;100.00;-4743.34;5028277;28;20437;-71
2021/01/06 02:08:20;;;;;;;0.60;0.50;;;3.10;99.90;;;3.66;100.00;-6179.09;5032749;28;20687;-71
2021/01/06 02:10:55;;;;;;;0.60;0.50;;;3.10;99.90;;;3.64;100.00;-7666.38;4999349;28;20194;-71
2021/01/06 02:13:30;;;;;;;0.60;0.60;;;3.10;99.90;;;3.66;100.00;-8658.56;5014796;28;20932;-70
2021/01/06 02:16:09;;;;;;;0.60;0.50;;;3.10;99.90;;;3.74;100.00;-9417.38;5002299;28;20528;-71
2021/01/06 02:18:38;;;;;;;0.60;0.60;;;3.10;99.90;;;3.66;100.00;-10512.53;5016806;28;20417;-71
2021/01/06 02:21:14;;;;;;;0.60;0.60;;;3.10;99.90;;;3.65;100.00;-11329.75;5016377;28;20258;-71
2021/01/06 02:23:46;;;;;;;0.60;0.50;;;3.10;99.90;;;3.72;100.00;-12150.19;5004957;28;20185;-71
2021/01/06 02:26:17;;;;;;;0.60;0.50;;;3.20;99.90;;;3.73;100.00;-12756.34;5022477;28;20191;-71
2021/01/06 02:28:48;;;;;;;0.60;0.50;;;3.20;99.90;;;3.83;100.00;-13199.84;4996452;28;20314;-72
2021/01/06 02:31:18;;;;;;;0.60;0.50;;;3.20;99.90;;;3.76;100.00;-14023.00;5002895;28;20195;-70
2021/01/06 02:33:47;;;;;;;0.70;0.70;;;3.30;99.90;;;3.91;100.00;-13901.19;5014056;28;20643;-70
2021/01/06 02:36:16;;;;;;;0.60;0.50;;;3.30;99.90;;;3.88;100.00;-14111.81;5015847;28;20418;-71
2021/01/06 02:38:45;;;;;;;0.60;0.53;;;3.30;99.90;;;3.84;100.00;-14133.56;5013620;28;20196;-70
2021/01/06 02:41:13;;;;;;;0.60;0.50;;;3.30;99.90;;;3.90;100.00;-14194.00;5012533;28;20438;-70
2021/01/06 02:43:42;;;;;;;0.60;0.50;;;3.30;99.90;;;3.97;100.00;-14453.41;5013980;28;20219;-71
2021/01/06 02:46:10;;;;;;;0.60;0.50;;;3.40;99.90;;;3.96;100.00;-14689.16;5019939;28;20210;-70
2021/01/06 02:48:39;;;;;;;0.60;0.60;;;3.40;99.90;;;3.91;100.00;-14765.22;5035182;28;20190;-71
2021/01/06 02:51:12;;;;;;;0.60;0.50;;;3.40;99.90;;;3.97;100.00;-14815.94;5027104;28;20222;-70
2021/01/06 02:53:51;;;;;;;0.60;0.50;;;3.40;99.90;;;3.92;100.00;-14859.72;5000295;28;20187;-70
2021/01/06 02:56:21;;;;;;;0.60;0.50;;;3.40;99.90;;;3.89;100.00;-15047.81;5015697;28;20182;-71
2021/01/06 02:58:51;;;;;;;0.60;0.50;;;3.40;99.90;;;3.95;100.00;-15028.97;5014049;28;20506;-70
2021/01/06 03:01:24;;;;;;;0.60;0.50;;;3.40;99.90;;;3.91;100.00;-15311.19;5028995;28;20195;-70
2021/01/06 03:03:53;;;;;;;0.60;0.50;;;3.40;99.90;;;3.93;100.00;-15557.28;5016262;28;20265;-70
2021/01/06 03:06:28;;;;;;;0.60;0.50;;;3.40;99.90;;;3.92;100.00;-15701.00;5008863;28;20457;-70
2021/01/06 03:08:56;;;;;;;1.17;1.07;;;3.40;99.90;;;3.93;100.00;-15996.50;5014517;28;20787;-70
2021/01/06 03:11:23;;;;;;;0.60;0.50;;;3.40;99.90;;;3.88;100.00;-16214.06;5014954;28;20461;-70
2021/01/06 03:13:50;;;;;;;0.60;0.50;;;3.40;99.90;;;3.90;100.00;-16576.47;5012601;28;20238;-71
2021/01/06 03:16:17;;;;;;;0.60;0.50;;;3.30;99.90;;;3.86;100.00;-16898.22;5014809;28;20191;-71
2021/01/06 03:18:45;;;;;;;0.60;0.60;;;3.30;99.90;;;3.91;100.00;-17325.84;5022518;28;20950;-71
2021/01/06 03:21:14;;;;;;;0.60;0.50;;;3.40;99.90;;;3.93;100.00;-17698.31;4995801;28;20230;-71
2021/01/06 03:23:46;;;;;;;0.60;0.50;;;3.40;99.90;;;3.96;100.00;-17783.34;5002789;28;20177;-71
2021/01/06 03:26:19;;;;;;;0.60;0.50;;;3.40;99.90;;;3.94;100.00;-17906.88;5012933;28;20429;-71
2021/01/06 03:28:48;;;;;;;0.60;0.50;;;3.50;99.90;;;3.94;100.00;-18088.03;5031648;28;20462;-71
2021/01/06 03:31:22;;;;;;;0.60;0.50;;;3.50;99.90;;;3.99;100.00;-18061.81;5025742;28;20457;-71
2021/01/06 03:33:57;;;;;;;0.60;0.50;;;3.50;99.90;;;3.94;100.00;-18231.88;5013187;28;20735;-71
2021/01/06 03:36:30;;;;;;;0.60;0.50;;;3.50;99.90;;;4.04;100.00;-18182.03;5013020;28;20440;-70
2021/01/06 03:39:00;;;;;;;0.60;0.50;;;3.50;99.90;;;4.04;100.00;-18276.38;5014829;28;20492;-69
2021/01/06 03:41:30;;;;;;;0.60;0.50;;;3.50;99.90;;;4.01;100.00;-18377.34;5008142;28;20250;-71
2021/01/06 03:44:08;;;;;;;0.60;0.60;;;3.50;99.90;;;4.02;100.00;-18479.28;5002395;28;20473;-71
2021/01/06 03:46:43;;;;;;;0.60;0.50;;;3.50;99.90;;;4.00;100.00;-18667.13;5006631;28;20466;-71
2021/01/06 03:49:30;;;;;;;0.60;0.60;;;3.50;99.90;;;4.00;100.00;-18865.50;4995032;28;20522;-71
2021/01/06 03:52:14;;;;;;;0.60;0.60;;;3.40;99.90;;;4.00;100.00;-19098.69;5017775;28;21000;-70
2021/01/06 03:54:48;;;;;;;0.60;0.50;;;3.40;99.90;;;3.99;100.00;-19249.56;5021769;28;20444;-70
2021/01/06 03:57:18;;;;;;;0.60;0.50;;;3.40;99.90;;;3.93;100.00;-19458.84;5012482;28;20583;-70
2021/01/06 03:59:49;;;;;;;0.60;0.50;;;3.40;99.90;;;3.95;100.00;-19652.59;5015597;28;20745;-70
2021/01/06 04:02:20;;;;;;;0.60;0.60;;;3.40;99.90;;;3.96;100.00;-19878.41;4997488;28;20434;-69
2021/01/06 04:04:53;;;;;;;0.60;0.50;;;3.40;99.90;;;3.96;100.00;-20056.84;4994576;28;20481;-70
2021/01/06 04:07:29;;;;;;;0.60;0.50;;;3.40;99.90;;;3.96;100.00;-20205.69;5011726;28;20461;-70
2021/01/06 04:10:01;;;;;;;0.60;0.50;;;3.40;99.90;;;3.96;100.00;-20366.78;5019362;28;20491;-71
2021/01/06 04:12:29;;;;;;;0.60;0.60;;;3.40;99.90;;;4.07;100.00;-20444.00;5032591;28;20754;-69
2021/01/06 04:14:56;;;;;;;0.60;0.60;;;3.50;99.90;;;4.06;100.00;-20518.09;5019038;28;20456;-70
2021/01/06 04:17:27;;;;;;;0.60;0.50;;;3.40;99.90;;;4.04;100.00;-20601.78;4999108;28;20249;-71
2021/01/06 04:20:00;;;;;;;0.60;0.60;;;3.50;99.90;;;4.06;100.00;-20669.41;4994861;28;20455;-70
2021/01/06 04:22:41;;;;;;;0.60;0.50;;;3.50;99.90;;;4.04;100.00;-20706.03;5010057;28;20460;-70
2021/01/06 04:25:18;;;;;;;0.60;0.50;;;3.50;99.90;;;4.01;100.00;-20779.53;5007001;28;20215;-70
2021/01/06 04:27:48;;;;;;;0.60;0.50;;;3.50;99.90;;;4.05;100.00;-20792.44;4993244;28;20414;-69
2021/01/06 04:30:25;;;;;;;0.60;0.50;;;3.50;99.90;;;4.01;100.00;-20791.16;5007980;28;20464;-70
2021/01/06 04:32:53;;;;;;;0.60;0.50;;;3.40;99.90;;;4.02;100.00;-20791.44;5004748;28;21006;-70
2021/01/06 04:35:21;;;;;;;0.60;0.50;;;3.50;99.90;;;4.01;100.00;-20791.31;5011341;28;20926;-70
2021/01/06 04:37:49;;;;;;;0.60;0.50;;;3.40;99.90;;;4.01;100.00;-20791.16;5013826;28;20550;-70
2021/01/06 04:40:19;;;;;;;0.60;0.50;;;3.40;99.90;;;3.99;100.00;-20790.75;5013736;28;20599;-70
2021/01/06 04:42:48;;;;;;;0.70;0.70;;;3.40;99.90;;;4.01;100.00;-20791.16;4998812;28;20462;-70
2021/01/06 04:45:19;;;;;;;0.60;0.60;;;3.40;99.90;;;3.97;100.00;-20790.19;5011150;28;20473;-70
2021/01/06 04:48:32;;;;;;;0.60;0.60;;;3.50;99.90;;;4.00;100.00;-20790.88;5003204;28;20801;-70
2021/01/06 04:51:30;;;;;;;0.60;0.60;;;3.50;99.90;;;4.06;100.00;-20792.56;4994149;28;20427;-69
2021/01/06 04:55:01;;;;;;;0.70;0.60;;;3.50;99.90;;;4.08;100.00;-20793.13;5004535;28;20438;-70
2021/01/06 04:57:43;;;;;;;0.63;0.57;;;3.50;99.90;;;4.08;100.00;-20793.13;5011757;28;20541;-69
2021/01/06 05:00:33;;;;;;;0.60;0.60;;;3.40;99.90;;;4.08;100.00;-20793.13;5001815;28;20532;-69
2021/01/06 05:03:43;;;;;;;0.60;0.60;;;3.50;99.90;;;4.05;100.00;-20792.28;5009885;28;20426;-70
2021/01/06 05:06:47;;;;;;;0.60;0.50;;;3.50;99.90;;;4.11;100.00;-20793.97;4995527;28;20454;-70
2021/01/06 05:09:21;;;;;;;0.60;0.60;;;3.60;99.90;;;4.04;100.00;-20792.16;5006064;28;20186;-69
2021/01/06 05:12:12;;;;;;;0.60;0.57;;;3.50;99.90;;;4.00;100.00;-20790.88;5013875;28;20497;-70
2021/01/06 05:14:49;;;;;;;0.60;0.60;;;3.50;99.90;;;4.00;100.00;-20790.88;5010024;28;20238;-70
2021/01/06 05:17:17;;;;;;;0.60;0.50;;;3.40;99.90;;;3.91;100.00;-20788.38;5013698;28;20221;-70
2021/01/06 05:19:48;;;;;;;0.60;0.50;;;3.30;99.90;;;3.63;100.00;-20780.84;5013043;28;20262;-70
2021/01/06 05:22:17;;;;;;;0.60;0.50;;;3.20;99.90;;;3.59;100.00;-20779.88;5011973;28;20184;-70
2021/01/06 05:24:46;;;;;;;0.60;0.50;;;3.20;99.90;;;3.52;100.00;-20777.78;5013221;28;20210;-70
2021/01/06 05:27:25;;;;;;;0.60;0.60;;;3.10;99.90;;;3.46;100.00;-20776.25;5013637;28;20812;-69
2021/01/06 05:29:58;;;;;;;0.60;0.50;;;3.00;99.90;;;3.55;100.00;-20778.63;5013469;28;20211;-70
2021/01/06 05:32:31;;;;;;;0.60;0.50;;;3.00;99.90;;;3.55;100.00;-20778.63;5012833;28;20206;-69
2021/01/06 05:35:04;;;;;;;0.65;0.60;;;3.00;99.90;;;3.57;100.00;-20779.31;5013774;28;20187;-70
2021/01/06 05:37:31;;;;;;;0.60;0.50;;;3.00;99.90;;;3.56;100.00;-20779.03;4995199;28;20242;-69
2021/01/06 05:40:05;;;;;;;0.60;0.60;;;3.00;99.90;;;3.66;100.00;-20781.69;5006760;28;20190;-70
2021/01/06 05:42:41;;;;;;;0.60;0.60;;;3.10;99.90;;;3.86;100.00;-20787.25;4997578;28;20207;-70
2021/01/06 05:45:11;;;;;;;0.60;0.60;;;3.20;99.90;;;3.81;100.00;-20785.72;5013599;28;20759;-68
2021/01/06 05:47:45;;;;;;;0.60;0.50;;;3.20;99.90;;;3.75;100.00;-20784.19;5015829;28;20234;-70
2021/01/06 05:50:19;;;;;;;0.60;0.50;;;3.10;99.90;;;3.73;100.00;-20783.50;5016632;28;20709;-69
2021/01/06 05:52:58;;;;;;;0.60;0.60;;;3.20;99.90;;;3.72;100.00;-20783.38;5015659;28;20318;-70
2021/01/06 05:55:28;;;;;;;0.60;0.50;;;3.10;99.90;;;3.75;100.00;-20784.19;5016550;28;20226;-70
2021/01/06 05:58:07;;;;;;;0.60;0.50;;;3.20;99.90;;;3.72;100.00;-20783.38;5016491;28;20690;-69
2021/01/06 06:00:58;;;;;;;0.60;0.60;;;3.10;99.90;;;3.69;100.00;-20782.53;5019157;28;20301;-70
2021/01/06 06:03:46;;;;;;;0.60;0.60;;;3.10;99.90;;;3.66;100.00;-20781.69;5016811;28;20477;-70
2021/01/06 06:06:53;;;;;;;0.60;0.50;;;3.10;99.90;;;3.64;100.00;-20781.13;5015793;28;20199;-69
2021/01/06 06:09:43;;;;;;;0.60;0.60;;;3.10;99.90;;;3.63;100.00;-20780.84;5001147;28;20524;-70
2021/01/06 06:12:44;;;;;;;0.60;0.60;;;3.10;99.90;;;3.64;100.00;-20781.13;5003104;28;20505;-70
2021/01/06 06:15:46;;;;;;;0.60;0.60;;;3.10;99.90;;;3.66;100.00;-20781.69;5014883;28;20297;-68
2021/01/06 06:18:53;;;;;;;0.60;0.50;;;3.10;99.90;;;3.66;100.00;-20781.56;4988045;28;20203;-69
2021/01/06 06:21:31;;;;;;;0.60;0.50;;;3.10;99.90;;;3.66;100.00;-20781.56;5025174;28;20615;-70
2021/01/06 06:24:39;;;;;;;0.70;0.60;;;3.10;99.90;;;3.73;100.00;-20783.66;5015277;28;20479;-70
2021/01/06 06:27:46;;;;;;;0.60;0.55;;;3.10;99.90;;;3.63;100.00;-20781.00;5016298;28;20183;-71
2021/01/06 06:30:27;;;;;;;0.60;0.50;;;3.10;99.90;;;3.63;100.00;-20780.84;5034010;28;20264;-69
2021/01/06 06:32:54;;;;;;;0.60;0.60;;;3.10;99.90;;;3.66;100.00;-20781.69;5011799;28;20543;-71
2021/01/06 06:35:30;;;;;;;0.60;0.50;;;3.10;99.90;;;3.64;100.00;-20781.13;4997212;28;20429;-70
2021/01/06 06:38:02;;;;;;;0.60;0.60;;;3.10;99.90;;;3.72;100.00;-20783.38;5016071;28;20183;-69
2021/01/06 06:40:51;;;;;;;0.60;0.60;;;3.10;99.90;;;3.69;100.00;-20782.53;5013544;28;20207;-70
2021/01/06 06:43:30;;;;;;;0.60;0.60;;;3.10;99.90;;;3.65;100.00;-20781.41;5011614;28;20658;-70
2021/01/06 06:46:17;;;;;;;0.60;0.60;;;3.10;99.90;;;3.66;100.00;-20781.56;5004961;28;20278;-69
2021/01/06 06:49:02;;;;;;;1.55;0.95;;;3.10;99.90;;;3.61;100.00;-20780.44;4996831;28;20184;-70
2021/01/06 06:51:36;;;;;;;0.60;0.50;;;3.10;99.90;;;3.61;100.00;-20780.28;5014826;28;20227;-70
2021/01/06 06:54:12;;;;;;;0.60;0.50;;;3.10;99.90;;;3.63;100.00;-20780.84;5016121;28;20201;-69
2021/01/06 06:56:48;;;;;;;0.60;0.60;;;3.10;99.90;;;3.61;100.00;-20780.28;5015884;28;20492;-70
2021/01/06 06:59:23;;;;;;;0.60;0.50;;;3.10;99.90;;;3.69;100.00;-20782.53;5015913;28;20461;-71
2021/01/06 07:01:51;;;;;;;0.60;0.50;;;3.10;99.90;;;3.62;100.00;-20780.72;5015588;28;20233;-70
2021/01/06 07:04:27;;;;;;;0.60;0.60;;;3.10;99.90;;;3.64;100.00;-20781.13;5031202;28;20191;-70
2021/01/06 07:06:59;;;;;;;0.60;0.50;;;3.10;99.90;;;3.66;100.00;-20781.69;5015718;28;20225;-71
2021/01/06 07:09:31;;;;;;;0.60;0.50;;;3.20;99.90;;;3.66;100.00;-20781.69;5016029;28;20239;-71
2021/01/06 07:12:05;;;;;;;0.60;0.50;;;3.20;99.90;;;3.69;100.00;-20782.38;5018204;28;20203;-71
2021/01/06 07:14:36;;;;;;;0.60;0.50;;;3.20;99.90;;;3.71;100.00;-20782.94;5015327;28;20235;-71
2021/01/06 07:17:11;;;;;;;0.60;0.50;;;3.20;99.90;;;3.74;100.00;-20783.91;5004681;28;20250;-71
2021/01/06 07:19:56;;;;;;;0.60;0.50;;;3.20;99.90;;;3.80;100.00;-20785.59;5012234;28;20213;-71
2021/01/06 07:22:34;;;;;;;0.60;0.50;;;3.30;99.90;;;3.81;100.00;-20785.88;4994625;28;20302;-72
2021/01/06 07:25:21;;;;;;;0.60;0.60;;;3.30;99.90;;;3.78;100.00;-20785.03;5003915;28;20853;-71
2021/01/06 07:27:53;;;;;;;0.60;0.60;;;3.30;99.90;;;3.81;100.00;-20785.88;5009944;28;20245;-70
2021/01/06 07:30:33;;;;;;;0.60;0.60;;;3.30;99.90;;;3.83;100.00;-20786.44;5013867;28;20220;-71
2021/01/06 07:33:09;;;;;;;0.60;0.55;;;3.40;99.90;;;3.79;100.00;-20785.19;5026336;28;20477;-71
2021/01/06 07:35:39;;;;;;;0.70;0.70;;;3.30;99.90;;;3.73;100.00;-20783.50;5008792;28;20530;-72
2021/01/06 07:38:08;;;;;;;0.60;0.60;;;3.30;99.90;;;3.71;100.00;-20782.94;4994821;28;20187;-70
2021/01/06 07:40:37;;;;;;;0.60;0.50;;;3.20;99.90;;;3.73;100.00;-20783.66;4998538;28;20434;-69
2021/01/06 07:43:23;;;;;;;0.60;0.50;;;3.20;99.90;;;3.68;100.00;-20782.25;5023774;28;20647;-71
2021/01/06 07:46:21;;;;;;;0.60;0.50;;;3.20;99.90;;;3.67;100.00;-20781.97;5013429;28;20187;-71
2021/01/06 07:49:11;;;;;;;0.60;0.50;;;3.20;99.90;;;3.72;100.00;-20783.38;4995097;28;20188;-71
2021/01/06 07:51:55;;;;;;;0.60;0.50;;;3.30;99.90;;;3.77;100.00;-20784.63;5009486;28;20215;-71
2021/01/06 07:54:31;;;;;;;0.60;0.50;;;3.30;99.90;;;3.79;100.00;-20785.31;5007616;28;20654;-71
2021/01/06 07:57:08;;;;;;;0.60;0.60;;;3.30;99.90;;;3.83;100.00;-20786.28;5009416;28;20573;-71
2021/01/06 07:59:53;;;;;;;0.60;0.50;;;3.30;99.90;;;3.82;100.00;-20786.00;5014050;28;20210;-71
2021/01/06 08:02:29;;;;;;;0.60;0.50;;;3.30;99.90;;;3.73;100.00;-20783.50;5013338;28;20179;-71
2021/01/06 08:05:21;;;;;;;0.60;0.60;;;3.20;99.90;;;3.69;100.00;-20782.53;5012995;28;20851;-71
2021/01/06 08:07:49;;;;;;;0.60;0.50;;;3.20;99.90;;;3.63;100.00;-20780.84;5007035;28;20227;-70
2021/01/06 08:10:27;;;;;;;0.60;0.50;;;3.10;99.90;;;3.67;100.00;-20781.97;5009075;28;20439;-71
2021/01/06 08:13:20;;;;;;;0.60;0.60;;;3.20;99.90;;;3.68;100.00;-20782.25;5008296;28;20208;-70
2021/01/06 08:15:51;;;;;;;0.60;0.57;;;3.20;99.90;;;3.68;100.00;-20782.25;4994642;28;20465;-71
2021/01/06 08:18:35;;;;;;;0.60;0.60;;;3.20;99.90;;;3.72;100.00;-20783.38;4992860;28;20477;-70
2021/01/06 08:21:21;;;;;;;0.70;0.60;;;3.20;99.90;;;3.80;100.00;-20785.59;4993404;28;20591;-70
2021/01/06 08:24:14;;;;;;;0.60;0.60;;;3.20;99.90;;;3.88;100.00;-20787.81;5001405;28;20666;-70
2021/01/06 08:26:50;;;;;;;0.60;0.60;;;3.20;99.90;;;3.97;100.00;-20790.06;5004425;28;20188;-71
2021/01/06 08:29:21;;;;;;;0.60;0.60;;;3.30;99.90;;;4.15;100.00;-20795.06;5021772;28;20861;-70
2021/01/06 08:31:52;;;;;;;0.60;0.60;;;3.30;99.90;;;4.21;100.00;-20796.75;5010070;28;20495;-71
2021/01/06 08:34:29;;;;;;;0.70;0.70;;;3.40;99.90;;;4.08;100.00;-20793.25;5012441;28;20452;-71
2021/01/06 08:37:04;;;;;;;0.60;0.50;;;3.40;99.90;;;4.11;100.00;-20794.09;5012480;28;20442;-71
2021/01/06 08:39:35;;;;;;;0.60;0.60;;;3.50;99.90;;;4.20;100.00;-20796.31;5006567;28;20473;-71
2021/01/06 08:42:17;;;;;;;0.60;0.53;;;3.50;99.90;;;4.30;100.00;-20799.25;5012509;28;20449;-71
2021/01/06 08:44:50;;;;;;;0.60;0.60;;;3.50;99.90;;;4.25;100.00;-20797.84;5013144;28;20814;-71
2021/01/06 08:47:32;;;;;;;0.60;0.60;;;3.50;99.90;;;4.29;100.00;-20798.97;5013398;28;20430;-71
2021/01/06 08:50:32;;;;;;;0.60;0.50;;;3.60;99.90;;;4.43;100.00;-20802.59;4997427;28;20441;-72
2021/01/06 08:53:02;;;;;;;0.60;0.50;;;3.60;99.90;;;4.49;100.00;-20804.41;5012216;28;20473;-72
2021/01/06 08:55:32;;;;;;;0.60;0.50;;;3.50;99.90;;;4.39;100.00;-20801.47;5009997;28;20477;-70
2021/01/06 08:58:04;;;;;;;0.60;0.50;;;3.60;99.90;;;4.56;100.00;-20806.22;5005287;28;20438;-71
2021/01/06 09:00:36;;;;;;;0.60;0.50;;;3.60;99.90;;;4.58;100.00;-20806.78;5012754;28;20209;-70
2021/01/06 09:03:20;;;;;;;0.70;0.60;;;3.50;99.90;;;4.39;100.00;-20801.47;5011995;28;20465;-70
2021/01/06 09:06:00;;;;;;;0.60;0.60;;;3.50;99.90;;;4.49;100.00;-20804.25;5010176;28;20264;-70
2021/01/06 09:08:31;;;;;;;0.60;0.60;;;3.60;99.90;;;4.45;100.00;-20803.28;5009734;28;20473;-70
2021/01/06 09:11:23;;;;;;;0.60;0.53;;;3.60;99.90;;;4.44;100.00;-20802.88;5012335;28;20842;-71
2021/01/06 09:13:59;;;;;;;0.60;0.60;;;3.60;99.90;;;4.42;100.00;-20802.47;5007673;28;20486;-70
2021/01/06 09:16:39;;;;;;;1.17;1.03;;;3.60;99.90;;;4.54;100.00;-20805.66;5011039;28;20853;-71
2021/01/06 09:19:14;;;;;;;0.60;0.50;;;3.60;99.90;;;4.53;100.00;-20805.38;5013581;28;20991;-70
2021/01/06 09:21:42;;;;;;;0.60;0.50;;;3.60;99.90;;;4.70;100.00;-20810.13;5011365;28;20425;-68
2021/01/06 09:24:15;;;;;;;0.60;0.50;;;3.60;99.90;;;4.56;100.00;-20806.22;5012985;28;20488;-70
2021/01/06 09:26:45;;;;;;;0.60;0.60;;;3.60;99.90;;;4.70;100.00;-20810.13;5031625;28;20463;-69
2021/01/06 09:29:17;;;;;;;0.60;0.53;;;3.60;99.90;;;4.77;100.00;-20812.06;5006492;28;21024;-71
2021/01/06 09:31:49;;;;;;;0.60;0.50;;;3.70;99.90;;;4.75;100.00;-20730.13;5013374;28;20414;-70
2021/01/06 09:34:27;;;;;;;0.60;0.60;;;3.70;99.90;;;4.75;100.00;-20539.22;5012912;28;20944;-71
2021/01/06 09:36:55;;;;;;;0.60;0.50;;;3.70;99.90;;;4.82;100.00;-20295.44;5009987;28;20881;-69
2021/01/06 09:39:27;;;;;;;0.60;0.60;;;3.80;99.90;;;5.03;100.00;-20027.88;5014695;28;20498;-71
2021/01/06 09:41:57;;;;;;;0.67;0.63;;;3.90;99.90;;;5.16;100.00;-19656.19;5017386;28;20429;-71
2021/01/06 09:44:25;;;;;;;0.63;0.60;;;3.90;99.90;;;5.17;100.00;-19445.34;5013064;28;20814;-71
2021/01/06 09:46:58;;;;;;;0.60;0.60;;;4.00;99.90;;;5.35;100.00;-19012.41;5013352;28;20782;-71
2021/01/06 09:49:31;;;;;;;0.70;0.60;;;4.00;99.90;;;5.45;100.00;-18781.38;5011974;28;20874;-70
2021/01/06 09:52:05;;;;;;;0.60;0.60;;;4.10;99.90;;;5.61;100.00;-18307.81;5027793;28;20460;-71
2021/01/06 09:54:33;;;;;;;0.60;0.60;;;4.20;99.90;;;5.57;100.00;-18028.41;5029236;28;20434;-70
2021/01/06 09:57:00;;;;;;;0.60;0.60;;;4.20;99.90;;;5.59;100.00;-17247.97;5012848;28;20464;-71
2021/01/06 09:59:32;;;;;;;0.60;0.60;;;4.40;99.90;;;5.50;100.00;-16693.91;5013886;28;20472;-70
2021/01/06 10:02:05;;;;;;;0.70;0.70;;;4.40;99.90;;;5.74;100.00;-16330.56;5028329;28;20481;-71
2021/01/06 10:04:38;;;;;;;0.70;0.60;;;4.30;99.90;;;5.72;100.00;-16228.25;5024077;28;20430;-70
2021/01/06 10:07:38;;;;;;;0.60;0.60;;;4.30;99.90;;;5.71;100.00;-16320.09;5028464;28;20484;-70
2021/01/06 10:10:13;;;;;;;0.70;0.70;;;4.50;99.90;;;6.14;100.00;-15581.47;5014022;28;20436;-70
2021/01/06 10:12:52;;;;;;;0.60;0.60;;;4.70;99.90;;;6.60;100.00;-15540.34;5019775;28;20452;-70
2021/01/06 10:15:59;;;;;;;0.70;0.60;;;4.80;99.90;;;6.66;100.00;-16692.84;5013489;28;20469;-70
2021/01/06 10:18:34;;;;;;;0.67;0.60;;;4.90;99.90;;;6.56;100.00;-18011.06;4999717;28;20446;-71
2021/01/06 10:21:16;;;;;;;0.60;0.50;;;5.00;99.90;;;6.41;100.00;-19770.06;5011633;28;20890;-70
2021/01/06 10:24:05;;;;;;;0.60;0.50;;;5.00;99.90;;;6.09;100.00;-20530.19;5022798;28;20509;-69
2021/01/06 10:26:46;;;;;;;0.80;0.80;;;4.90;99.90;;;5.96;100.00;-20822.75;5010959;28;20434;-70
2021/01/06 10:29:17;;;;;;;0.70;0.60;;;4.70;99.90;;;5.92;100.00;-20843.25;5002800;28;20951;-70
2021/01/06 10:32:07;;;;;;;0.70;0.60;;;4.60;99.90;;;5.72;100.00;-20837.81;5016572;28;20788;-70
2021/01/06 10:34:39;;;;;;;0.70;0.70;;;4.40;99.90;;;5.70;100.00;-20837.25;5028790;28;20468;-70
2021/01/06 10:37:21;;;;;;;0.70;0.60;;;4.20;99.90;;;5.39;100.00;-20828.78;5021036;28;20449;-70
2021/01/06 10:39:51;;;;;;;0.70;0.60;;;4.10;99.90;;;5.22;100.00;-20824.31;5003432;28;20441;-71
2021/01/06 10:42:36;;;;;;;0.70;0.60;;;4.00;99.90;;;5.08;100.00;-20820.41;5020132;28;20785;-71
2021/01/06 10:45:11;;;;;;;0.60;0.50;;;3.90;99.90;;;4.96;100.00;-20817.09;5026362;28;20555;-71
2021/01/06 10:47:46;;;;;;;0.80;0.80;;;3.90;99.90;;;4.90;100.00;-20815.56;5009498;28;20443;-70
2021/01/06 10:50:45;;;;;;;0.63;0.60;;;3.90;99.90;;;5.07;100.00;-20820.13;5025700;28;20440;-69
2021/01/06 10:53:25;;;;;;;0.70;0.60;;;4.00;99.90;;;5.16;100.00;-20822.66;4995667;28;20567;-71
2021/01/06 10:56:04;;;;;;;0.60;0.60;;;4.10;99.90;;;5.00;100.00;-20818.19;5020941;28;20933;-70